Time;durP1;ratioP1;P1;durP2;ratioP2;P2;SDS_P1;SDS_P2;PMS_P1;PMS_P2;Temp;Humidity;BMP_temperature;BMP_pressure;BME280_temperature;BME280_humidity;BME280_pressure;Samples;Min_cycle;Max_cycle;Signal;HPM_P1;HPM_P2
2021/01/28 00:02:05;;;;;;;5.23;4.77;;;3.60;99.90;;;;;;5037375;28;20182;-87
2021/01/28 00:04:31;;;;;;;5.63;4.93;;;3.50;99.90;;;;;;5035238;28;20609;-86
2021/01/28 00:06:57;;;;;;;5.63;4.70;;;3.50;99.90;;;;;;5033259;28;20209;-87
2021/01/28 00:09:22;;;;;;;5.10;4.60;;;3.40;99.90;;;;;;5034567;28;20220;-86
2021/01/28 00:11:48;;;;;;;5.50;5.00;;;3.30;99.90;;;;;;5050010;28;20188;-87
2021/01/28 00:14:14;;;;;;;5.20;4.63;;;3.40;99.90;;;;;;5053622;28;20729;-85
2021/01/28 00:16:40;;;;;;;4.63;4.23;;;3.50;99.90;;;;;;5046892;28;20221;-87
2021/01/28 00:19:05;;;;;;;4.73;4.33;;;3.40;99.90;;;;;;5035716;28;20216;-87
2021/01/28 00:21:31;;;;;;;6.47;4.37;;;3.60;99.90;;;;;;5031289;28;20192;-86
2021/01/28 00:23:57;;;;;;;4.50;4.10;;;3.60;99.90;;;;;;5045317;28;20209;-86
2021/01/28 00:26:23;;;;;;;4.90;4.40;;;3.60;99.90;;;;;;5045173;28;20196;-85
2021/01/28 00:28:48;;;;;;;4.63;4.23;;;3.70;99.90;;;;;;5044768;28;20205;-86
2021/01/28 00:31:14;;;;;;;4.20;3.87;;;3.70;99.90;;;;;;5043518;28;20185;-87
2021/01/28 00:33:40;;;;;;;5.00;3.77;;;3.80;99.90;;;;;;5025797;28;20185;-86
2021/01/28 00:36:07;;;;;;;5.00;4.60;;;3.80;99.90;;;;;;5024128;28;20197;-87
2021/01/28 00:38:35;;;;;;;4.33;3.93;;;3.60;99.90;;;;;;5025633;28;20190;-86
2021/01/28 00:41:03;;;;;;;4.33;3.90;;;3.70;99.90;;;;;;5026097;28;20193;-85
2021/01/28 00:43:29;;;;;;;4.27;3.87;;;3.70;99.90;;;;;;5023994;28;20288;-87
2021/01/28 00:45:55;;;;;;;3.87;3.57;;;3.80;99.90;;;;;;5025273;28;20186;-87
2021/01/28 00:48:24;;;;;;;4.23;3.83;;;3.80;99.90;;;;;;5025359;28;20288;-86
2021/01/28 00:50:50;;;;;;;4.40;4.00;;;3.80;99.90;;;;;;5014608;28;20190;-86
2021/01/28 00:53:17;;;;;;;4.20;3.80;;;3.70;99.90;;;;;;5024592;28;20556;-87
2021/01/28 00:55:43;;;;;;;3.93;3.53;;;3.60;99.90;;;;;;5025020;28;20178;-86
2021/01/28 00:58:10;;;;;;;4.67;4.17;;;3.60;99.90;;;;;;5034463;28;20216;-87
2021/01/28 01:00:38;;;;;;;4.83;4.43;;;3.50;99.90;;;;;;5042760;28;20659;-87
2021/01/28 01:03:09;;;;;;;5.13;3.90;;;3.60;99.90;;;;;;5042870;28;20224;-87
2021/01/28 01:05:35;;;;;;;5.53;3.80;;;3.60;99.90;;;;;;5044702;28;20174;-87
2021/01/28 01:08:03;;;;;;;6.13;4.57;;;3.60;99.90;;;;;;5044117;28;20216;-86
2021/01/28 01:10:47;;;;;;;4.13;3.73;;;3.60;99.90;;;;;;5043545;28;20603;-87
2021/01/28 01:13:18;;;;;;;4.07;3.73;;;3.60;99.90;;;;;;5039619;28;20225;-87
2021/01/28 01:15:45;;;;;;;4.37;3.97;;;3.80;99.90;;;;;;5022849;28;20240;-87
2021/01/28 01:18:13;;;;;;;4.20;3.63;;;3.70;99.90;;;;;;5031240;28;20201;-87
2021/01/28 01:20:39;;;;;;;4.23;3.83;;;3.70;99.90;;;;;;5043741;28;20232;-87
2021/01/28 01:23:05;;;;;;;4.53;3.90;;;3.90;99.90;;;;;;5043429;28;20196;-87
2021/01/28 01:25:31;;;;;;;4.03;3.50;;;3.80;99.90;;;;;;5042537;28;20185;-86
2021/01/28 01:27:57;;;;;;;3.87;3.57;;;3.80;99.90;;;;;;5044621;28;20208;-87
2021/01/28 01:30:25;;;;;;;3.80;3.50;;;3.90;99.90;;;;;;5057012;28;20192;-86
2021/01/28 01:32:51;;;;;;;4.40;3.83;;;3.80;99.90;;;;;;5043596;28;20173;-87
2021/01/28 01:35:19;;;;;;;6.73;3.67;;;3.70;99.90;;;;;;5043625;28;20192;-85
2021/01/28 01:37:45;;;;;;;7.63;3.40;;;3.70;99.90;;;;;;5042307;28;20212;-86
2021/01/28 01:40:17;;;;;;;4.83;3.90;;;3.70;99.90;;;;;;5043507;28;20185;-86
2021/01/28 01:42:48;;;;;;;3.83;3.43;;;3.70;99.90;;;;;;5026264;28;20196;-87
2021/01/28 01:45:15;;;;;;;3.70;3.40;;;3.70;99.90;;;;;;5041808;28;20269;-87
2021/01/28 01:47:49;;;;;;;5.40;3.70;;;3.70;99.90;;;;;;5043036;28;20189;-87
2021/01/28 01:50:40;;;;;;;3.30;3.00;;;3.80;99.90;;;;;;5044125;28;20176;-87
2021/01/28 01:53:12;;;;;;;3.70;3.40;;;3.80;99.90;;;;;;5044161;28;20191;-88
2021/01/28 01:55:39;;;;;;;4.20;3.47;;;3.80;99.90;;;;;;5044332;28;20180;-87
2021/01/28 01:58:07;;;;;;;3.03;2.50;;;3.80;99.90;;;;;;5043540;28;20228;-86
2021/01/28 02:00:32;;;;;;;3.30;3.00;;;3.80;99.90;;;;;;5045217;28;20177;-87
2021/01/28 02:03:09;;;;;;;3.40;3.10;;;3.80;99.90;;;;;;5044691;28;20227;-87
2021/01/28 02:05:38;;;;;;;2.97;2.60;;;3.80;99.90;;;;;;5024606;28;20173;-87
2021/01/28 02:08:05;;;;;;;3.13;2.33;;;3.80;99.90;;;;;;5024158;28;20201;-86
2021/01/28 02:10:31;;;;;;;2.73;2.53;;;3.90;99.90;;;;;;5031343;28;20679;-87
2021/01/28 02:12:58;;;;;;;3.30;3.00;;;3.90;99.90;;;;;;5043688;28;20648;-87
2021/01/28 02:15:25;;;;;;;3.10;2.90;;;3.90;99.90;;;;;;5044087;28;20192;-85
2021/01/28 02:17:54;;;;;;;2.70;2.50;;;4.10;99.90;;;;;;5038343;28;20202;-86
2021/01/28 02:21:06;;;;;;;3.07;2.87;;;4.20;99.90;;;;;;5022918;28;20184;-87
2021/01/28 02:24:00;;;;;;;3.30;3.00;;;4.30;99.90;;;;;;5007721;28;20253;-86
2021/01/28 02:26:27;;;;;;;3.70;2.90;;;4.30;99.90;;;;;;5024701;28;20327;-87
2021/01/28 02:28:53;;;;;;;4.97;3.57;;;4.30;99.90;;;;;;5022590;28;20205;-86
2021/01/28 02:31:19;;;;;;;3.07;2.70;;;4.10;99.90;;;;;;5024218;28;20611;-86
2021/01/28 02:33:57;;;;;;;3.20;2.90;;;4.10;99.90;;;;;;5023411;28;20200;-87
2021/01/28 02:36:35;;;;;;;3.33;3.07;;;4.00;99.90;;;;;;5040198;28;20192;-87
2021/01/28 02:39:02;;;;;;;3.37;3.10;;;4.00;99.90;;;;;;5024475;28;20173;-87
2021/01/28 02:41:28;;;;;;;3.30;3.00;;;3.90;99.90;;;;;;5022875;28;20264;-87
2021/01/28 02:43:54;;;;;;;3.13;2.90;;;3.90;99.90;;;;;;5023997;28;20217;-86
2021/01/28 02:46:20;;;;;;;3.17;2.90;;;4.10;99.90;;;;;;5023472;28;20186;-87
2021/01/28 02:48:50;;;;;;;3.07;2.87;;;4.00;99.90;;;;;;5024609;28;20177;-87
2021/01/28 02:51:16;;;;;;;3.50;3.00;;;4.00;99.90;;;;;;5024922;28;20193;-87
2021/01/28 02:53:45;;;;;;;2.90;2.70;;;4.00;99.90;;;;;;5044289;28;20224;-86
2021/01/28 02:56:12;;;;;;;3.50;3.20;;;4.00;99.90;;;;;;5042903;28;20200;-87
2021/01/28 02:58:38;;;;;;;3.43;3.13;;;4.00;99.90;;;;;;5044494;28;20184;-87
2021/01/28 03:01:06;;;;;;;4.90;3.43;;;3.90;99.90;;;;;;5044654;28;20276;-87
2021/01/28 03:03:32;;;;;;;3.97;3.40;;;3.90;99.90;;;;;;5044168;28;20216;-87
2021/01/28 03:05:58;;;;;;;3.40;3.10;;;3.90;99.90;;;;;;5043380;28;20215;-87
2021/01/28 03:08:26;;;;;;;3.93;3.40;;;4.10;99.90;;;;;;5032516;28;20205;-87
2021/01/28 03:10:53;;;;;;;3.67;3.37;;;4.30;99.90;;;;;;5023318;28;20181;-87
2021/01/28 03:13:19;;;;;;;3.50;3.20;;;4.30;99.90;;;;;;5023350;28;20189;-87
2021/01/28 03:15:45;;;;;;;4.03;3.73;;;4.20;99.90;;;;;;5023592;28;20189;-87
2021/01/28 03:18:12;;;;;;;3.57;3.27;;;4.00;99.90;;;;;;5036497;28;20220;-87
2021/01/28 03:20:38;;;;;;;3.73;3.43;;;3.90;99.90;;;;;;5052951;28;20177;-87
2021/01/28 03:23:04;;;;;;;5.33;3.40;;;3.90;99.90;;;;;;5043779;28;20647;-87
2021/01/28 03:25:30;;;;;;;3.77;3.30;;;3.90;99.90;;;;;;5007107;28;20217;-86
2021/01/28 03:27:57;;;;;;;3.70;3.40;;;3.90;99.90;;;;;;5024250;28;20198;-87
2021/01/28 03:30:28;;;;;;;4.10;3.80;;;4.00;99.90;;;;;;5022988;28;20212;-87
2021/01/28 03:32:55;;;;;;;4.07;3.20;;;4.00;99.90;;;;;;5024352;28;20232;-87
2021/01/28 03:35:22;;;;;;;4.17;3.40;;;3.90;99.90;;;;;;5024352;28;20222;-87
2021/01/28 03:37:49;;;;;;;4.10;3.67;;;3.90;99.90;;;;;;5024417;28;20209;-87
2021/01/28 03:40:16;;;;;;;3.77;3.47;;;3.80;99.90;;;;;;5034503;28;20719;-87
2021/01/28 03:42:41;;;;;;;4.03;3.60;;;3.80;99.90;;;;;;5026719;28;20209;-87
2021/01/28 03:45:08;;;;;;;3.13;2.93;;;4.10;99.90;;;;;;5042895;28;20209;-88
2021/01/28 03:47:34;;;;;;;4.23;3.30;;;4.20;99.90;;;;;;5043960;28;20343;-87
2021/01/28 03:50:00;;;;;;;3.40;2.90;;;4.20;99.90;;;;;;5043895;28;20185;-87
2021/01/28 03:52:25;;;;;;;4.00;3.13;;;4.30;99.90;;;;;;5025973;28;20196;-87
2021/01/28 03:54:51;;;;;;;3.53;3.23;;;4.30;99.90;;;;;;5043221;28;20181;-87
2021/01/28 03:57:17;;;;;;;3.73;3.40;;;4.10;99.90;;;;;;5043770;28;20221;-87
2021/01/28 03:59:43;;;;;;;4.00;3.60;;;4.10;99.90;;;;;;5044142;28;20177;-87
2021/01/28 04:02:08;;;;;;;3.30;3.10;;;4.10;99.90;;;;;;5044174;28;20265;-85
2021/01/28 04:04:34;;;;;;;2.87;2.67;;;4.10;99.90;;;;;;5043885;28;20240;-87
2021/01/28 04:07:00;;;;;;;4.57;3.30;;;4.10;99.90;;;;;;5026310;28;20204;-87
2021/01/28 04:09:26;;;;;;;3.13;2.93;;;4.10;99.90;;;;;;5042742;28;20207;-87
2021/01/28 04:11:51;;;;;;;3.57;3.27;;;4.00;99.90;;;;;;5042841;28;20242;-87
2021/01/28 04:14:17;;;;;;;3.47;3.17;;;4.10;99.90;;;;;;5043549;28;20189;-87
2021/01/28 04:16:43;;;;;;;3.43;3.13;;;4.00;99.90;;;;;;5043846;28;20209;-87
2021/01/28 04:19:09;;;;;;;3.40;3.07;;;4.10;99.90;;;;;;5045176;28;20181;-86
2021/01/28 04:21:36;;;;;;;3.60;3.30;;;4.00;99.90;;;;;;5042658;28;20181;-85
2021/01/28 04:24:02;;;;;;;4.00;3.63;;;3.90;99.90;;;;;;5027308;28;20201;-88
2021/01/28 04:26:28;;;;;;;6.30;3.97;;;3.80;99.90;;;;;;5027459;28;20198;-87
2021/01/28 04:28:55;;;;;;;4.10;3.70;;;3.80;99.90;;;;;;5026594;28;20193;-87
2021/01/28 04:31:21;;;;;;;3.80;3.23;;;3.90;99.90;;;;;;5026249;28;20197;-86
2021/01/28 04:33:47;;;;;;;4.00;3.60;;;3.90;99.90;;;;;;5025816;28;20288;-87
2021/01/28 04:36:13;;;;;;;3.60;3.30;;;4.10;99.90;;;;;;5027076;28;20189;-87
2021/01/28 04:38:39;;;;;;;4.00;3.60;;;4.00;99.90;;;;;;5027488;28;20185;-87
2021/01/28 04:41:14;;;;;;;3.80;3.47;;;4.00;99.90;;;;;;5025887;28;20213;-87
2021/01/28 04:43:40;;;;;;;4.03;3.73;;;3.90;99.90;;;;;;5026792;28;20209;-87
2021/01/28 04:46:09;;;;;;;3.80;3.50;;;4.00;99.90;;;;;;5026744;28;20186;-87
2021/01/28 04:48:36;;;;;;;3.83;3.53;;;4.10;99.90;;;;;;5027059;28;20178;-86
2021/01/28 04:51:04;;;;;;;3.80;3.50;;;4.10;99.90;;;;;;5032137;28;20185;-87
2021/01/28 04:53:40;;;;;;;3.87;3.57;;;4.10;99.90;;;;;;5046632;28;20185;-87
2021/01/28 04:56:17;;;;;;;3.87;3.57;;;4.10;99.90;;;;;;5046426;28;20172;-87
2021/01/28 04:58:43;;;;;;;3.90;3.60;;;4.10;99.90;;;;;;5046941;28;20165;-87
2021/01/28 05:01:09;;;;;;;3.80;3.50;;;4.10;99.90;;;;;;5046328;28;20212;-87
2021/01/28 05:03:52;;;;;;;4.83;3.47;;;4.10;99.90;;;;;;5045689;28;20209;-86
2021/01/28 05:06:18;;;;;;;3.53;3.23;;;4.00;99.90;;;;;;5045408;28;20216;-85
2021/01/28 05:08:44;;;;;;;3.60;3.30;;;4.10;99.90;;;;;;5053001;28;20173;-87
2021/01/28 05:11:39;;;;;;;3.33;3.03;;;4.00;99.90;;;;;;5051166;28;20177;-86
2021/01/28 05:14:16;;;;;;;4.00;3.60;;;4.10;99.90;;;;;;5033536;28;20314;-87
2021/01/28 05:16:45;;;;;;;4.27;3.87;;;4.10;99.90;;;;;;5028700;28;20223;-87
2021/01/28 05:19:29;;;;;;;4.17;3.87;;;4.10;99.90;;;;;;5046308;28;20196;-88
2021/01/28 05:22:09;;;;;;;4.17;3.77;;;4.10;99.90;;;;;;5044645;28;20192;-88
2021/01/28 05:24:43;;;;;;;4.17;3.77;;;4.10;99.90;;;;;;5046048;28;20208;-88
2021/01/28 05:27:26;;;;;;;4.23;3.83;;;4.10;99.90;;;;;;5046353;28;20275;-88
2021/01/28 05:29:54;;;;;;;4.30;4.00;;;4.10;99.90;;;;;;5045741;28;20223;-88
2021/01/28 05:32:37;;;;;;;5.30;4.23;;;4.20;99.90;;;;;;5044213;28;20192;-88
2021/01/28 05:35:12;;;;;;;6.10;4.00;;;4.10;99.90;;;;;;5038181;28;20204;-88
2021/01/28 05:37:38;;;;;;;4.90;4.47;;;4.10;99.90;;;;;;5044952;28;20232;-88
2021/01/28 05:40:09;;;;;;;5.90;5.40;;;4.10;99.90;;;;;;5011971;28;20189;-88
2021/01/28 05:42:35;;;;;;;7.03;5.77;;;4.10;99.90;;;;;;5045822;28;20234;-88
2021/01/28 05:45:29;;;;;;;5.80;5.30;;;4.10;99.90;;;;;;5043999;28;20243;-87
2021/01/28 05:48:23;;;;;;;6.17;5.57;;;4.10;99.90;;;;;;5040953;28;20205;-87
2021/01/28 05:51:06;;;;;;;5.70;5.20;;;4.00;99.90;;;;;;5025996;28;20184;-89
2021/01/28 05:53:32;;;;;;;5.97;5.27;;;4.00;99.90;;;;;;5023512;28;20204;-89
2021/01/28 05:55:59;;;;;;;5.73;5.23;;;4.00;99.90;;;;;;5025297;28;20190;-89
2021/01/28 05:58:27;;;;;;;6.40;5.80;;;3.90;99.90;;;;;;5025791;28;20282;-89
2021/01/28 06:01:22;;;;;;;6.17;5.50;;;3.90;99.90;;;;;;5026035;28;20185;-90
2021/01/28 06:04:05;;;;;;;5.53;5.03;;;3.90;99.90;;;;;;5025645;28;20217;-89
2021/01/28 06:06:49;;;;;;;6.77;5.80;;;4.00;99.90;;;;;;5044425;28;20215;-89
2021/01/28 06:09:23;;;;;;;5.77;5.20;;;4.00;99.90;;;;;;5032342;28;20189;-89
2021/01/28 06:12:04;;;;;;;7.30;6.07;;;3.90;99.90;;;;;;5025958;28;20165;-89
2021/01/28 06:15:11;;;;;;;7.37;5.50;;;3.90;99.90;;;;;;5025774;28;20240;-89
2021/01/28 06:18:01;;;;;;;5.77;5.13;;;4.00;99.90;;;;;;5025790;28;20205;-89
2021/01/28 06:20:37;;;;;;;4.57;4.17;;;4.10;99.90;;;;;;5028940;28;20204;-89
2021/01/28 06:23:15;;;;;;;7.87;5.23;;;4.10;99.90;;;;;;5044414;28;20180;-89
2021/01/28 06:26:08;;;;;;;4.77;4.27;;;4.10;99.90;;;;;;5044648;28;20195;-89
2021/01/28 06:28:59;;;;;;;4.57;3.83;;;4.10;99.90;;;;;;5035454;28;20170;-89
2021/01/28 06:31:51;;;;;;;4.47;3.63;;;4.10;99.90;;;;;;5024225;28;20189;-89
2021/01/28 06:34:47;;;;;;;3.80;3.50;;;4.10;99.90;;;;;;5025279;28;20173;-89
2021/01/28 06:37:28;;;;;;;3.40;3.10;;;4.20;99.90;;;;;;5025866;28;20296;-89
2021/01/28 06:39:56;;;;;;;3.70;3.40;;;4.10;99.90;;;;;;5027674;28;20177;-90
2021/01/28 06:42:44;;;;;;;3.53;3.23;;;4.10;99.90;;;;;;5029468;28;20200;-89
2021/01/28 06:45:20;;;;;;;3.37;3.13;;;4.10;99.90;;;;;;5041944;28;20218;-89
2021/01/28 06:47:45;;;;;;;4.50;4.10;;;4.20;99.90;;;;;;5046249;28;20215;-89
2021/01/28 06:50:22;;;;;;;4.63;4.23;;;4.20;99.90;;;;;;5045375;28;20185;-89
2021/01/28 06:53:05;;;;;;;6.00;5.30;;;4.20;99.90;;;;;;5041963;28;20193;-89
2021/01/28 06:55:44;;;;;;;6.67;5.90;;;4.20;99.90;;;;;;5027186;28;20170;-89
2021/01/28 06:58:41;;;;;;;9.90;6.97;;;4.20;99.90;;;;;;5026791;28;20263;-90
2021/01/28 07:01:26;;;;;;;7.43;6.63;;;4.30;99.90;;;;;;5037462;28;20256;-89
2021/01/28 07:04:16;;;;;;;8.90;6.73;;;4.30;99.90;;;;;;5034965;28;20209;-89
2021/01/28 07:07:13;;;;;;;6.07;5.47;;;4.40;99.90;;;;;;5026220;28;20197;-90
2021/01/28 07:10:23;;;;;;;5.20;4.70;;;4.40;99.90;;;;;;5025947;28;20166;-89
2021/01/28 07:12:51;;;;;;;4.33;3.93;;;4.30;99.90;;;;;;5014736;28;20208;-89
2021/01/28 07:15:19;;;;;;;4.63;4.13;;;4.30;99.90;;;;;;5028673;28;20189;-89
2021/01/28 07:17:53;;;;;;;4.40;4.00;;;4.40;99.90;;;;;;5025118;28;20274;-89
2021/01/28 07:20:30;;;;;;;4.77;4.37;;;4.50;99.90;;;;;;5024958;28;20181;-89
2021/01/28 07:23:18;;;;;;;4.20;3.77;;;4.40;99.90;;;;;;5026628;28;20618;-89
2021/01/28 07:25:46;;;;;;;4.30;3.90;;;4.40;99.90;;;;;;5024869;28;20615;-90
2021/01/28 07:28:18;;;;;;;4.17;3.77;;;4.30;99.90;;;;;;5026799;28;20197;-90
2021/01/28 07:31:16;;;;;;;4.27;3.87;;;4.40;99.90;;;;;;5039608;28;20204;-90
2021/01/28 07:34:14;;;;;;;4.20;3.83;;;4.50;99.90;;;;;;5037428;28;20191;-89
2021/01/28 07:36:52;;;;;;;4.53;4.07;;;4.50;99.90;;;;;;5043049;28;20683;-90
2021/01/28 07:39:47;;;;;;;6.57;5.93;;;4.50;99.90;;;;;;5045859;28;20170;-90
2021/01/28 07:42:22;;;;;;;6.73;6.07;;;4.40;99.90;;;;;;5005226;28;20194;-90
2021/01/28 07:44:53;;;;;;;6.13;5.53;;;4.40;99.90;;;;;;5034935;28;20236;-90
2021/01/28 07:47:31;;;;;;;8.50;7.30;;;4.40;99.90;;;;;;5038737;23;20233;-92
2021/01/28 07:50:30;;;;;;;9.60;7.67;;;4.50;99.90;;;;;;5005167;28;20186;-91
2021/01/28 07:52:57;;;;;;;6.17;5.50;;;4.50;99.90;;;;;;4996204;28;20193;-90
2021/01/28 07:55:41;;;;;;;6.73;4.77;;;4.50;99.90;;;;;;4989761;28;20206;-91
2021/01/28 07:58:34;;;;;;;4.57;4.17;;;4.60;99.90;;;;;;5009003;28;20182;-90
2021/01/28 08:01:10;;;;;;;6.17;4.93;;;4.60;99.90;;;;;;5009594;28;20158;-91
2021/01/28 08:03:59;;;;;;;5.67;3.90;;;4.70;99.90;;;;;;5009234;28;20173;-91
2021/01/28 08:06:25;;;;;;;4.17;3.77;;;4.70;99.90;;;;;;5007297;28;20220;-91
2021/01/28 08:09:11;;;;;;;4.63;3.90;;;4.60;99.90;;;;;;5008627;28;20178;-91
2021/01/28 08:11:37;;;;;;;4.50;3.70;;;4.60;99.90;;;;;;5009473;28;20174;-91
2021/01/28 08:14:06;;;;;;;4.50;3.60;;;4.70;99.90;;;;;;5007886;28;20199;-90
2021/01/28 08:16:32;;;;;;;5.17;3.30;;;4.70;99.90;;;;;;5007009;28;20201;-91
2021/01/28 08:19:05;;;;;;;5.40;4.20;;;4.80;99.90;;;;;;5008230;28;20194;-90
2021/01/28 08:21:32;;;;;;;5.30;4.90;;;4.80;99.90;;;;;;5007823;28;20712;-91
2021/01/28 08:24:36;;;;;;;5.23;4.73;;;4.90;99.90;;;;;;5003981;28;20694;-91
2021/01/28 08:27:20;;;;;;;5.53;5.03;;;4.90;99.90;;;;;;5000245;28;20670;-90
2021/01/28 08:30:06;;;;;;;4.90;4.17;;;4.90;99.90;;;;;;5001311;28;20182;-91
2021/01/28 08:32:32;;;;;;;5.60;4.30;;;4.90;99.90;;;;;;5009281;28;20185;-91
2021/01/28 08:35:04;;;;;;;5.03;3.93;;;4.90;99.90;;;;;;5008325;28;20210;-91
2021/01/28 08:37:34;;;;;;;4.70;4.27;;;4.90;99.90;;;;;;5008381;28;20193;-91
2021/01/28 08:40:00;;;;;;;4.57;4.07;;;5.00;99.90;;;;;;5008507;28;20265;-91
2021/01/28 08:42:27;;;;;;;4.80;4.33;;;5.00;99.90;;;;;;5007833;28;20265;-91
2021/01/28 08:45:14;;;;;;;4.97;4.57;;;5.00;99.90;;;;;;5006814;28;20213;-91
2021/01/28 08:47:40;;;;;;;4.97;4.10;;;5.10;99.90;;;;;;5010910;28;20193;-92
2021/01/28 08:50:14;;;;;;;4.43;4.03;;;5.20;99.90;;;;;;5027201;28;20182;-91
2021/01/28 08:52:41;;;;;;;5.10;4.50;;;5.30;99.90;;;;;;5012880;28;20189;-92
2021/01/28 08:55:18;;;;;;;3.57;3.27;;;5.30;99.90;;;;;;4996134;28;20221;-90
2021/01/28 08:57:44;;;;;;;2.70;2.50;;;5.60;99.90;;;;;;4995549;28;20194;-90
2021/01/28 09:00:12;;;;;;;1.93;1.83;;;5.80;99.90;;;;;;4995196;28;20218;-91
2021/01/28 09:02:43;;;;;;;1.80;1.70;;;6.10;99.90;;;;;;4999344;28;20190;-91
2021/01/28 09:05:21;;;;;;;1.93;1.63;;;6.20;99.90;;;;;;4996386;28;20229;-90
2021/01/28 09:07:48;;;;;;;2.10;1.90;;;6.30;99.90;;;;;;4999148;28;20183;-90
2021/01/28 09:10:36;;;;;;;2.07;1.90;;;6.50;99.90;;;;;;5003084;28;20191;-90
2021/01/28 09:13:12;;;;;;;1.50;1.40;;;6.60;99.90;;;;;;5006695;28;20192;-91
2021/01/28 09:15:38;;;;;;;1.80;1.70;;;6.70;99.90;;;;;;5004102;28;20261;-90
2021/01/28 09:18:07;;;;;;;1.90;1.80;;;6.70;99.90;;;;;;4998155;28;20239;-91
2021/01/28 09:20:35;;;;;;;2.27;1.60;;;6.70;99.90;;;;;;5000841;28;20185;-90
2021/01/28 09:23:09;;;;;;;1.80;1.70;;;6.90;99.90;;;;;;4997844;28;20190;-89
2021/01/28 09:25:35;;;;;;;1.83;1.40;;;6.80;99.90;;;;;;4992614;28;20218;-90
2021/01/28 09:28:11;;;;;;;1.70;1.60;;;6.90;99.90;;;;;;4993056;28;20191;-90
2021/01/28 09:30:49;;;;;;;3.57;1.77;;;7.20;99.90;;;;;;5000474;28;20185;-91
2021/01/28 09:33:34;;;;;;;1.80;1.70;;;7.00;99.90;;;;;;4996004;28;20190;-90
2021/01/28 09:36:27;;;;;;;2.30;1.47;;;7.10;99.90;;;;;;4994683;28;20728;-90
2021/01/28 09:39:04;;;;;;;2.40;1.60;;;7.10;99.90;;;;;;5001672;28;20220;-90
2021/01/28 09:41:44;;;;;;;2.40;1.40;;;7.20;99.90;;;;;;4994567;28;20197;-90
2021/01/28 09:44:37;;;;;;;1.93;1.30;;;7.20;99.90;;;;;;4998375;28;20242;-90
2021/01/28 09:47:22;;;;;;;2.03;1.50;;;7.40;99.90;;;;;;4995301;28;20202;-90
2021/01/28 09:49:51;;;;;;;1.60;1.50;;;7.30;99.90;;;;;;4995916;28;20188;-91
2021/01/28 09:52:22;;;;;;;2.07;1.27;;;7.30;99.90;;;;;;4996898;28;20199;-91
2021/01/28 09:54:54;;;;;;;3.17;1.67;;;7.30;99.90;;;;;;4997406;28;20214;-90
2021/01/28 09:57:20;;;;;;;1.70;1.50;;;7.40;99.90;;;;;;4979522;28;20270;-90
2021/01/28 09:59:46;;;;;;;1.90;1.70;;;7.40;99.90;;;;;;4999863;28;20218;-90
2021/01/28 10:02:19;;;;;;;2.20;1.73;;;7.40;99.90;;;;;;4997500;28;20195;-90
2021/01/28 10:04:45;;;;;;;1.60;1.30;;;7.50;99.90;;;;;;4994082;28;20222;-90
2021/01/28 10:07:13;;;;;;;1.67;1.57;;;7.60;99.90;;;;;;4982073;28;20194;-91
2021/01/28 10:09:39;;;;;;;1.63;1.50;;;7.60;99.90;;;;;;4993589;28;20198;-91
2021/01/28 10:12:06;;;;;;;2.43;1.70;;;7.60;99.90;;;;;;4994750;28;20258;-91
2021/01/28 10:14:32;;;;;;;1.20;1.20;;;7.60;99.90;;;;;;4993940;28;20211;-91
2021/01/28 10:16:58;;;;;;;5.23;4.70;;;7.60;99.90;;;;;;5000571;28;20202;-90
2021/01/28 10:19:24;;;;;;;4.30;4.00;;;7.60;99.90;;;;;;4995829;28;20213;-91
2021/01/28 10:21:50;;;;;;;1.37;1.30;;;7.60;99.90;;;;;;4999134;28;20195;-91
2021/01/28 10:24:16;;;;;;;1.43;1.33;;;7.60;99.90;;;;;;4962111;28;20293;-90
2021/01/28 10:26:42;;;;;;;2.27;1.60;;;7.50;99.90;;;;;;5001516;28;20305;-91
2021/01/28 10:29:07;;;;;;;2.17;1.43;;;7.70;99.90;;;;;;4995564;28;20195;-91
2021/01/28 10:31:34;;;;;;;2.10;1.90;;;7.60;99.90;;;;;;4996096;28;20230;-91
2021/01/28 10:34:00;;;;;;;2.47;1.70;;;7.80;99.90;;;;;;4992763;28;20272;-91
2021/01/28 10:36:26;;;;;;;1.90;1.77;;;7.80;99.90;;;;;;4974897;28;20198;-91
2021/01/28 10:38:51;;;;;;;1.60;1.50;;;7.80;99.90;;;;;;4995328;28;20195;-91
2021/01/28 10:41:17;;;;;;;1.90;1.67;;;7.70;99.90;;;;;;4976002;28;20219;-91
2021/01/28 10:43:44;;;;;;;1.57;1.40;;;7.80;99.90;;;;;;4956012;28;20218;-91
2021/01/28 10:46:10;;;;;;;2.37;1.60;;;7.80;99.90;;;;;;4997042;28;20229;-91
2021/01/28 10:48:36;;;;;;;2.10;1.67;;;7.80;99.90;;;;;;4988656;28;20217;-91
2021/01/28 10:51:03;;;;;;;1.63;1.53;;;7.80;99.90;;;;;;4990635;28;20183;-91
2021/01/28 10:53:30;;;;;;;1.80;1.70;;;7.80;99.90;;;;;;4998660;28;20190;-90
2021/01/28 10:55:56;;;;;;;1.70;1.60;;;7.80;99.90;;;;;;4988450;28;20230;-92
2021/01/28 10:58:26;;;;;;;2.37;1.43;;;7.90;99.90;;;;;;4997777;28;20305;-91
2021/01/28 11:00:56;;;;;;;1.70;1.60;;;7.90;99.90;;;;;;4989841;28;20221;-92
2021/01/28 11:03:22;;;;;;;1.90;1.80;;;8.00;99.90;;;;;;4971795;28;20183;-90
2021/01/28 11:05:50;;;;;;;3.20;1.80;;;8.00;99.90;;;;;;4993198;28;20249;-90
2021/01/28 11:08:16;;;;;;;3.20;1.53;;;8.10;99.90;;;;;;5003220;28;20179;-90
2021/01/28 11:10:42;;;;;;;2.10;1.80;;;8.20;99.90;;;;;;5004524;28;20178;-91
2021/01/28 11:13:08;;;;;;;2.10;1.47;;;8.30;99.90;;;;;;4998925;28;20190;-91
2021/01/28 11:15:36;;;;;;;1.33;1.33;;;8.40;99.90;;;;;;4998906;28;20209;-90
2021/01/28 11:18:08;;;;;;;1.67;1.57;;;8.50;99.90;;;;;;5003526;28;20262;-91
2021/01/28 11:20:34;;;;;;;2.27;1.57;;;8.50;99.90;;;;;;4985489;28;20175;-92
2021/01/28 11:23:00;;;;;;;2.10;1.77;;;8.40;99.90;;;;;;4985983;28;20272;-91
2021/01/28 11:25:27;;;;;;;1.90;1.80;;;8.40;99.90;;;;;;5004493;28;20218;-91
2021/01/28 11:27:53;;;;;;;1.70;1.60;;;8.40;99.90;;;;;;5011770;28;20182;-91
2021/01/28 11:30:22;;;;;;;2.00;1.40;;;8.50;99.90;;;;;;5003242;28;20186;-91
2021/01/28 11:32:48;;;;;;;1.70;1.60;;;8.50;99.90;;;;;;4994399;28;20189;-89
2021/01/28 11:35:16;;;;;;;3.17;1.97;;;8.50;99.90;;;;;;4990830;28;20228;-91
2021/01/28 11:37:45;;;;;;;1.60;1.50;;;8.60;99.90;;;;;;4986373;28;20194;-90
2021/01/28 11:40:14;;;;;;;2.63;2.37;;;8.70;99.90;;;;;;4994243;28;20191;-90
2021/01/28 11:42:39;;;;;;;1.60;1.50;;;8.70;99.90;;;;;;4991436;28;20237;-91
2021/01/28 11:45:06;;;;;;;2.10;1.50;;;8.70;99.90;;;;;;4993543;28;20693;-90
2021/01/28 11:47:32;;;;;;;1.60;1.50;;;8.80;99.90;;;;;;4991091;28;20218;-91
2021/01/28 11:49:57;;;;;;;1.93;1.60;;;8.90;99.90;;;;;;4994180;28;20183;-90
2021/01/28 11:52:23;;;;;;;1.47;1.43;;;8.90;99.90;;;;;;4991861;28;20279;-90
2021/01/28 11:54:49;;;;;;;2.00;1.83;;;8.70;99.90;;;;;;4996486;28;20209;-91
2021/01/28 11:57:16;;;;;;;1.63;1.53;;;8.80;99.90;;;;;;4998711;28;20198;-91
2021/01/28 11:59:41;;;;;;;1.73;1.63;;;8.70;99.90;;;;;;4995658;28;20241;-91
2021/01/28 12:02:07;;;;;;;1.83;1.50;;;8.80;99.90;;;;;;4995065;28;20191;-90
2021/01/28 12:04:33;;;;;;;2.83;1.87;;;8.90;99.90;;;;;;4996493;28;20261;-90
2021/01/28 12:06:59;;;;;;;1.70;1.60;;;8.80;99.90;;;;;;4993437;28;20191;-90
2021/01/28 12:09:25;;;;;;;2.80;1.60;;;9.00;99.90;;;;;;4996125;28;20248;-91
2021/01/28 12:11:51;;;;;;;2.47;2.17;;;9.10;99.90;;;;;;4995806;28;20199;-91
2021/01/28 12:14:16;;;;;;;1.60;1.50;;;9.10;99.90;;;;;;4991607;28;20214;-90
2021/01/28 12:16:42;;;;;;;1.53;1.43;;;9.10;99.90;;;;;;4995657;28;20194;-91
2021/01/28 12:19:09;;;;;;;1.70;1.60;;;9.00;99.90;;;;;;4992240;28;20198;-90
2021/01/28 12:21:36;;;;;;;1.60;1.50;;;9.10;99.90;;;;;;4994847;28;20190;-89
2021/01/28 12:24:02;;;;;;;1.63;1.53;;;9.20;99.90;;;;;;4994662;28;20202;-90
2021/01/28 12:26:27;;;;;;;1.57;1.47;;;9.30;99.90;;;;;;4992761;28;20211;-91
2021/01/28 12:28:53;;;;;;;2.03;1.70;;;9.30;99.90;;;;;;4990788;28;20187;-90
2021/01/28 12:31:19;;;;;;;1.60;1.50;;;9.20;99.90;;;;;;4989349;28;20249;-91
2021/01/28 12:33:45;;;;;;;1.73;1.63;;;9.20;99.90;;;;;;4997317;28;20195;-90
2021/01/28 12:36:11;;;;;;;3.60;2.10;;;9.20;99.90;;;;;;4998715;28;20227;-91
2021/01/28 12:38:37;;;;;;;2.00;1.80;;;9.30;99.90;;;;;;4994623;28;20190;-91
2021/01/28 12:41:04;;;;;;;2.30;1.70;;;9.30;99.90;;;;;;4998486;28;20188;-90
2021/01/28 12:43:29;;;;;;;1.67;1.57;;;9.50;99.90;;;;;;4979341;28;20241;-91
2021/01/28 12:45:57;;;;;;;1.77;1.67;;;9.40;99.90;;;;;;4998816;28;20203;-90
2021/01/28 12:48:23;;;;;;;2.00;1.83;;;9.50;99.90;;;;;;4998956;28;20225;-90
2021/01/28 12:50:49;;;;;;;1.60;1.50;;;9.40;99.90;;;;;;4993061;28;20202;-91
2021/01/28 12:53:14;;;;;;;3.57;1.90;;;9.50;99.90;;;;;;4992083;28;20194;-90
2021/01/28 12:55:41;;;;;;;2.27;1.70;;;9.50;99.90;;;;;;4998125;28;20206;-90
2021/01/28 12:58:07;;;;;;;1.90;1.80;;;9.40;99.90;;;;;;4997013;28;20219;-90
2021/01/28 13:00:32;;;;;;;2.17;1.73;;;9.50;99.90;;;;;;4999025;28;20248;-90
2021/01/28 13:02:58;;;;;;;1.80;1.70;;;9.40;99.90;;;;;;5002696;28;20263;-90
2021/01/28 13:05:24;;;;;;;1.60;1.50;;;9.40;99.90;;;;;;4994322;28;20219;-89
2021/01/28 13:07:50;;;;;;;2.43;1.80;;;9.40;99.90;;;;;;4996180;28;20190;-90
2021/01/28 13:10:18;;;;;;;4.50;2.10;;;9.40;99.90;;;;;;4999062;28;20741;-90
2021/01/28 13:12:44;;;;;;;1.90;1.80;;;9.50;99.90;;;;;;4998040;28;20191;-89
2021/01/28 13:15:13;;;;;;;2.30;2.10;;;9.50;99.90;;;;;;4978923;28;20242;-90
2021/01/28 13:17:39;;;;;;;4.03;1.90;;;9.70;99.90;;;;;;4995049;28;20198;-90
2021/01/28 13:20:06;;;;;;;2.90;2.03;;;9.60;99.90;;;;;;4987452;28;20198;-90